Chadron Municipal Airport
KCDR : rendu visible

Aérodrome :











RETROUVEZ-NOUS SUR...

 
LOGIN :

S'inscrire | Disclaimer

   EN    FR    IT 

 









Légende :    VFR   VFR Marginal   IFR   IFR Intensif   IFR Très Intensif
Visi : 
Plafond : 
>= 8 km
>= 3000ft
5 à 8 km
1000 à 3000 ft
1500m à 5 km
500 à 1000 ft
800 à 1500m
200 à 500 ft
< 800m
< 200 ft
Symboles :   Orages  Brouillard  Fortes neiges  Fortes précipitations  Vent > 20 kt






- Altitude de l'aérodrome : 3297 ft


KCDR - Chadron Municipal

DERNIER METAR :
  • 211553Z AUTO 05006KT 10SM OVC012 M03/M06 A3021 RMK AO2 SLP271 T10281056

METARs EXPIRÉS :
  • 211453Z AUTO 06007KT 8SM OVC014 M03/M06 A3020 RMK AO2 SLP267 T10331061 51017
  • 211353Z AUTO 07004KT 10SM OVC017 M03/M06 A3018 RMK AO2 SLP258 T10281056

TAF KCDR
Valide du 21 à 15h jusqu'au 22 à 12h UTC


211504Z 2115/2212 05007KT P6SM OVC014
FM211900 01007KT P6SM OVC035
FM220000 19006KT P6SM SCT050



MET'MAP, la Météo Aéronautique d'un coup d'oeil ! - Copyright ORBIFLY Décembre 2007 - Disclaimer

ORBIFLY MET'MAP TEAM :

Programmation & Développement : Alexandra Zaïnal
Conception & Développement : Baudouin d'Aumeries
Co-Programmation & Développement : Marc-Olivier Méhu
Soutien technique & logistique : Manuel Goepfert

Contact : metmap@orbifly.com




SOURCES & CREDITS :

   NOAA       Earth
Advisory